sensor_id;sensor_type;location;lat;lon;timestamp;P1;durP1;ratioP1;P2;durP2;ratioP2
6378;SDS011;3222;48.858;10.128;2023-06-22T00:01:18;7.73;;;6.10;;
6378;SDS011;3222;48.858;10.128;2023-06-22T00:03:44;7.47;;;5.73;;
6378;SDS011;3222;48.858;10.128;2023-06-22T00:06:10;9.05;;;5.88;;
6378;SDS011;3222;48.858;10.128;2023-06-22T00:08:35;7.10;;;5.28;;
6378;SDS011;3222;48.858;10.128;2023-06-22T00:11:01;7.43;;;5.53;;
6378;SDS011;3222;48.858;10.128;2023-06-22T00:13:27;10.77;;;6.07;;
6378;SDS011;3222;48.858;10.128;2023-06-22T00:15:53;6.65;;;5.45;;
6378;SDS011;3222;48.858;10.128;2023-06-22T00:18:19;7.97;;;6.10;;
6378;SDS011;3222;48.858;10.128;2023-06-22T00:20:45;9.83;;;7.53;;
6378;SDS011;3222;48.858;10.128;2023-06-22T00:23:11;10.03;;;7.40;;
6378;SDS011;3222;48.858;10.128;2023-06-22T00:25:38;6.95;;;5.88;;
6378;SDS011;3222;48.858;10.128;2023-06-22T00:28:05;8.07;;;6.15;;
6378;SDS011;3222;48.858;10.128;2023-06-22T00:30:33;6.70;;;6.00;;
6378;SDS011;3222;48.858;10.128;2023-06-22T00:33:00;13.10;;;9.13;;
6378;SDS011;3222;48.858;10.128;2023-06-22T00:35:26;10.47;;;8.50;;
6378;SDS011;3222;48.858;10.128;2023-06-22T00:37:54;8.65;;;6.00;;
6378;SDS011;3222;48.858;10.128;2023-06-22T00:40:29;8.43;;;5.50;;
6378;SDS011;3222;48.858;10.128;2023-06-22T00:42:56;6.80;;;5.38;;
6378;SDS011;3222;48.858;10.128;2023-06-22T00:45:23;5.60;;;5.10;;
6378;SDS011;3222;48.858;10.128;2023-06-22T00:47:53;6.13;;;5.40;;
6378;SDS011;3222;48.858;10.128;2023-06-22T00:50:22;8.13;;;4.65;;
6378;SDS011;3222;48.858;10.128;2023-06-22T00:52:56;8.23;;;5.20;;
6378;SDS011;3222;48.858;10.128;2023-06-22T00:55:23;6.97;;;4.93;;
6378;SDS011;3222;48.858;10.128;2023-06-22T00:57:50;6.53;;;5.03;;
6378;SDS011;3222;48.858;10.128;2023-06-22T01:00:20;6.05;;;5.20;;
6378;SDS011;3222;48.858;10.128;2023-06-22T01:02:50;7.63;;;4.93;;
6378;SDS011;3222;48.858;10.128;2023-06-22T01:05:17;9.63;;;5.40;;
6378;SDS011;3222;48.858;10.128;2023-06-22T01:07:51;8.07;;;5.53;;
6378;SDS011;3222;48.858;10.128;2023-06-22T01:13:23;7.27;;;5.30;;
6378;SDS011;3222;48.858;10.128;2023-06-22T01:16:22;6.00;;;5.03;;
6378;SDS011;3222;48.858;10.128;2023-06-22T01:18:52;7.93;;;5.07;;
6378;SDS011;3222;48.858;10.128;2023-06-22T01:21:20;9.43;;;5.20;;
6378;SDS011;3222;48.858;10.128;2023-06-22T01:29:23;8.63;;;5.57;;
6378;SDS011;3222;48.858;10.128;2023-06-22T01:31:51;5.60;;;4.93;;
6378;SDS011;3222;48.858;10.128;2023-06-22T01:34:19;7.50;;;4.90;;
6378;SDS011;3222;48.858;10.128;2023-06-22T01:36:46;6.75;;;4.78;;
6378;SDS011;3222;48.858;10.128;2023-06-22T01:39:12;7.72;;;5.80;;
6378;SDS011;3222;48.858;10.128;2023-06-22T01:41:39;8.07;;;4.80;;
6378;SDS011;3222;48.858;10.128;2023-06-22T01:44:07;9.23;;;5.40;;
6378;SDS011;3222;48.858;10.128;2023-06-22T01:46:34;6.00;;;5.10;;
6378;SDS011;3222;48.858;10.128;2023-06-22T01:49:04;11.10;;;6.05;;
6378;SDS011;3222;48.858;10.128;2023-06-22T01:51:31;6.70;;;5.63;;
6378;SDS011;3222;48.858;10.128;2023-06-22T01:53:58;7.30;;;6.10;;
6378;SDS011;3222;48.858;10.128;2023-06-22T01:56:24;7.60;;;6.50;;
6378;SDS011;3222;48.858;10.128;2023-06-22T01:58:55;9.93;;;7.03;;
6378;SDS011;3222;48.858;10.128;2023-06-22T02:01:31;8.60;;;5.97;;
6378;SDS011;3222;48.858;10.128;2023-06-22T02:04:06;8.13;;;6.50;;
6378;SDS011;3222;48.858;10.128;2023-06-22T02:06:38;7.27;;;6.00;;
6378;SDS011;3222;48.858;10.128;2023-06-22T02:09:09;8.63;;;6.47;;
6378;SDS011;3222;48.858;10.128;2023-06-22T02:11:40;6.65;;;5.95;;
6378;SDS011;3222;48.858;10.128;2023-06-22T02:14:07;11.90;;;6.93;;
6378;SDS011;3222;48.858;10.128;2023-06-22T02:16:33;8.97;;;6.67;;
6378;SDS011;3222;48.858;10.128;2023-06-22T02:19:02;7.50;;;6.75;;
6378;SDS011;3222;48.858;10.128;2023-06-22T02:21:28;9.03;;;6.10;;
6378;SDS011;3222;48.858;10.128;2023-06-22T02:23:56;7.93;;;6.20;;
6378;SDS011;3222;48.858;10.128;2023-06-22T02:26:22;7.13;;;6.20;;
6378;SDS011;3222;48.858;10.128;2023-06-22T02:28:48;7.90;;;5.93;;
6378;SDS011;3222;48.858;10.128;2023-06-22T02:31:16;7.57;;;5.90;;
6378;SDS011;3222;48.858;10.128;2023-06-22T02:33:42;6.73;;;5.73;;
6378;SDS011;3222;48.858;10.128;2023-06-22T02:36:09;8.33;;;5.70;;
6378;SDS011;3222;48.858;10.128;2023-06-22T02:38:38;7.27;;;5.70;;
6378;SDS011;3222;48.858;10.128;2023-06-22T02:41:13;7.35;;;5.45;;
6378;SDS011;3222;48.858;10.128;2023-06-22T02:43:43;8.00;;;6.63;;
6378;SDS011;3222;48.858;10.128;2023-06-22T02:46:12;8.38;;;6.20;;
6378;SDS011;3222;48.858;10.128;2023-06-22T02:48:40;11.80;;;6.55;;
6378;SDS011;3222;48.858;10.128;2023-06-22T02:51:06;8.18;;;6.30;;
6378;SDS011;3222;48.858;10.128;2023-06-22T02:53:34;8.53;;;6.67;;
6378;SDS011;3222;48.858;10.128;2023-06-22T02:56:03;9.47;;;7.47;;
6378;SDS011;3222;48.858;10.128;2023-06-22T02:58:35;8.43;;;7.27;;
6378;SDS011;3222;48.858;10.128;2023-06-22T03:01:06;11.27;;;7.77;;
6378;SDS011;3222;48.858;10.128;2023-06-22T03:03:34;12.80;;;7.40;;
6378;SDS011;3222;48.858;10.128;2023-06-22T03:06:00;10.10;;;7.20;;
6378;SDS011;3222;48.858;10.128;2023-06-22T03:08:28;8.47;;;7.10;;
6378;SDS011;3222;48.858;10.128;2023-06-22T03:10:55;9.77;;;7.03;;
6378;SDS011;3222;48.858;10.128;2023-06-22T03:13:21;10.60;;;7.28;;
6378;SDS011;3222;48.858;10.128;2023-06-22T03:15:47;8.47;;;7.57;;
6378;SDS011;3222;48.858;10.128;2023-06-22T03:18:12;9.77;;;7.20;;
6378;SDS011;3222;48.858;10.128;2023-06-22T03:20:38;10.07;;;6.93;;
6378;SDS011;3222;48.858;10.128;2023-06-22T03:23:04;8.63;;;7.07;;
6378;SDS011;3222;48.858;10.128;2023-06-22T03:25:31;9.30;;;7.63;;
6378;SDS011;3222;48.858;10.128;2023-06-22T03:27:59;9.00;;;6.30;;
6378;SDS011;3222;48.858;10.128;2023-06-22T03:30:25;8.73;;;6.80;;
6378;SDS011;3222;48.858;10.128;2023-06-22T03:32:51;9.33;;;6.47;;
6378;SDS011;3222;48.858;10.128;2023-06-22T03:35:17;10.48;;;6.75;;
6378;SDS011;3222;48.858;10.128;2023-06-22T03:37:42;10.60;;;6.67;;
6378;SDS011;3222;48.858;10.128;2023-06-22T03:40:08;9.93;;;6.40;;
6378;SDS011;3222;48.858;10.128;2023-06-22T03:42:34;8.90;;;6.37;;
6378;SDS011;3222;48.858;10.128;2023-06-22T03:45:03;10.43;;;6.87;;
6378;SDS011;3222;48.858;10.128;2023-06-22T03:47:29;7.55;;;6.00;;
6378;SDS011;3222;48.858;10.128;2023-06-22T03:49:57;10.67;;;6.03;;
6378;SDS011;3222;48.858;10.128;2023-06-22T03:52:22;7.80;;;6.00;;
6378;SDS011;3222;48.858;10.128;2023-06-22T03:54:48;7.13;;;6.03;;
6378;SDS011;3222;48.858;10.128;2023-06-22T03:57:14;6.97;;;5.90;;
6378;SDS011;3222;48.858;10.128;2023-06-22T03:59:40;7.77;;;5.90;;
6378;SDS011;3222;48.858;10.128;2023-06-22T04:02:05;6.73;;;6.03;;
6378;SDS011;3222;48.858;10.128;2023-06-22T04:04:31;8.53;;;6.33;;
6378;SDS011;3222;48.858;10.128;2023-06-22T04:06:57;8.47;;;6.30;;
6378;SDS011;3222;48.858;10.128;2023-06-22T04:09:23;9.80;;;6.63;;
6378;SDS011;3222;48.858;10.128;2023-06-22T04:11:49;7.03;;;6.07;;
6378;SDS011;3222;48.858;10.128;2023-06-22T04:14:14;8.70;;;6.37;;
6378;SDS011;3222;48.858;10.128;2023-06-22T04:16:40;9.23;;;6.23;;
6378;SDS011;3222;48.858;10.128;2023-06-22T04:19:06;8.23;;;6.67;;
6378;SDS011;3222;48.858;10.128;2023-06-22T04:21:31;7.90;;;6.27;;
6378;SDS011;3222;48.858;10.128;2023-06-22T04:23:57;7.60;;;6.07;;
6378;SDS011;3222;48.858;10.128;2023-06-22T04:26:23;8.37;;;6.80;;
6378;SDS011;3222;48.858;10.128;2023-06-22T04:28:48;10.17;;;6.60;;
6378;SDS011;3222;48.858;10.128;2023-06-22T04:31:20;7.37;;;6.30;;
6378;SDS011;3222;48.858;10.128;2023-06-22T04:33:46;8.77;;;6.37;;
6378;SDS011;3222;48.858;10.128;2023-06-22T04:36:12;9.87;;;6.30;;
6378;SDS011;3222;48.858;10.128;2023-06-22T04:38:38;7.57;;;6.33;;
6378;SDS011;3222;48.858;10.128;2023-06-22T04:41:05;7.23;;;6.33;;
6378;SDS011;3222;48.858;10.128;2023-06-22T04:43:33;6.80;;;6.10;;
6378;SDS011;3222;48.858;10.128;2023-06-22T04:45:59;7.73;;;6.07;;
6378;SDS011;3222;48.858;10.128;2023-06-22T04:48:31;7.43;;;5.40;;
6378;SDS011;3222;48.858;10.128;2023-06-22T04:50:58;6.70;;;6.00;;
6378;SDS011;3222;48.858;10.128;2023-06-22T04:53:28;7.97;;;6.33;;
6378;SDS011;3222;48.858;10.128;2023-06-22T04:55:55;8.50;;;6.20;;
6378;SDS011;3222;48.858;10.128;2023-06-22T04:58:20;7.53;;;5.47;;
6378;SDS011;3222;48.858;10.128;2023-06-22T05:00:46;7.13;;;6.00;;
6378;SDS011;3222;48.858;10.128;2023-06-22T05:03:12;9.33;;;6.03;;
6378;SDS011;3222;48.858;10.128;2023-06-22T05:05:38;9.60;;;5.80;;
6378;SDS011;3222;48.858;10.128;2023-06-22T05:08:04;9.17;;;5.83;;
6378;SDS011;3222;48.858;10.128;2023-06-22T05:10:32;6.30;;;5.70;;
6378;SDS011;3222;48.858;10.128;2023-06-22T05:12:58;6.90;;;5.60;;
6378;SDS011;3222;48.858;10.128;2023-06-22T05:15:24;7.33;;;5.87;;
6378;SDS011;3222;48.858;10.128;2023-06-22T05:17:53;10.57;;;5.80;;
6378;SDS011;3222;48.858;10.128;2023-06-22T05:20:19;6.77;;;5.43;;
6378;SDS011;3222;48.858;10.128;2023-06-22T05:22:47;7.90;;;5.30;;
6378;SDS011;3222;48.858;10.128;2023-06-22T05:25:12;8.43;;;5.10;;
6378;SDS011;3222;48.858;10.128;2023-06-22T05:27:38;8.57;;;4.97;;
6378;SDS011;3222;48.858;10.128;2023-06-22T05:30:05;7.17;;;5.40;;
6378;SDS011;3222;48.858;10.128;2023-06-22T05:32:35;7.35;;;5.00;;
6378;SDS011;3222;48.858;10.128;2023-06-22T05:35:02;7.73;;;5.03;;
6378;SDS011;3222;48.858;10.128;2023-06-22T05:37:28;7.60;;;5.30;;
6378;SDS011;3222;48.858;10.128;2023-06-22T05:39:54;5.53;;;4.37;;
6378;SDS011;3222;48.858;10.128;2023-06-22T05:42:20;7.73;;;5.37;;
6378;SDS011;3222;48.858;10.128;2023-06-22T05:44:46;8.60;;;4.50;;
6378;SDS011;3222;48.858;10.128;2023-06-22T05:47:12;7.67;;;4.10;;
6378;SDS011;3222;48.858;10.128;2023-06-22T05:49:38;7.80;;;4.20;;
6378;SDS011;3222;48.858;10.128;2023-06-22T05:52:04;7.00;;;4.17;;
6378;SDS011;3222;48.858;10.128;2023-06-22T05:54:29;5.97;;;4.20;;
6378;SDS011;3222;48.858;10.128;2023-06-22T05:56:55;4.77;;;3.97;;
6378;SDS011;3222;48.858;10.128;2023-06-22T05:59:21;8.17;;;4.17;;
6378;SDS011;3222;48.858;10.128;2023-06-22T06:01:47;8.47;;;4.03;;
6378;SDS011;3222;48.858;10.128;2023-06-22T06:04:18;5.73;;;4.30;;
6378;SDS011;3222;48.858;10.128;2023-06-22T06:06:44;5.93;;;3.80;;
6378;SDS011;3222;48.858;10.128;2023-06-22T06:09:10;7.53;;;4.20;;
6378;SDS011;3222;48.858;10.128;2023-06-22T06:11:36;4.47;;;3.60;;
6378;SDS011;3222;48.858;10.128;2023-06-22T06:14:02;5.20;;;3.87;;
6378;SDS011;3222;48.858;10.128;2023-06-22T06:16:28;4.73;;;3.77;;
6378;SDS011;3222;48.858;10.128;2023-06-22T06:18:54;11.67;;;4.13;;
6378;SDS011;3222;48.858;10.128;2023-06-22T06:21:21;4.78;;;3.90;;
6378;SDS011;3222;48.858;10.128;2023-06-22T06:23:47;6.67;;;4.00;;
6378;SDS011;3222;48.858;10.128;2023-06-22T06:26:13;4.83;;;3.80;;
6378;SDS011;3222;48.858;10.128;2023-06-22T06:28:41;3.73;;;3.40;;
6378;SDS011;3222;48.858;10.128;2023-06-22T06:31:07;7.03;;;3.60;;
6378;SDS011;3222;48.858;10.128;2023-06-22T06:33:34;6.63;;;3.70;;
6378;SDS011;3222;48.858;10.128;2023-06-22T06:35:59;7.43;;;3.83;;
6378;SDS011;3222;48.858;10.128;2023-06-22T06:38:28;4.33;;;3.60;;
6378;SDS011;3222;48.858;10.128;2023-06-22T06:40:57;5.80;;;3.53;;
6378;SDS011;3222;48.858;10.128;2023-06-22T06:43:23;4.07;;;3.63;;
6378;SDS011;3222;48.858;10.128;2023-06-22T06:45:50;8.98;;;3.70;;
6378;SDS011;3222;48.858;10.128;2023-06-22T06:48:15;5.50;;;3.93;;
6378;SDS011;3222;48.858;10.128;2023-06-22T06:50:42;10.50;;;3.83;;
6378;SDS011;3222;48.858;10.128;2023-06-22T06:53:09;5.70;;;3.57;;
6378;SDS011;3222;48.858;10.128;2023-06-22T06:55:35;6.82;;;3.60;;
6378;SDS011;3222;48.858;10.128;2023-06-22T06:58:01;7.60;;;3.53;;
6378;SDS011;3222;48.858;10.128;2023-06-22T07:00:29;6.13;;;3.70;;
6378;SDS011;3222;48.858;10.128;2023-06-22T07:02:54;6.25;;;2.92;;
6378;SDS011;3222;48.858;10.128;2023-06-22T07:05:20;6.07;;;3.70;;
6378;SDS011;3222;48.858;10.128;2023-06-22T07:07:46;8.27;;;3.53;;
6378;SDS011;3222;48.858;10.128;2023-06-22T07:10:11;9.55;;;3.83;;
6378;SDS011;3222;48.858;10.128;2023-06-22T07:12:37;4.90;;;3.07;;
6378;SDS011;3222;48.858;10.128;2023-06-22T07:15:04;4.47;;;3.13;;
6378;SDS011;3222;48.858;10.128;2023-06-22T07:17:33;8.73;;;3.72;;
6378;SDS011;3222;48.858;10.128;2023-06-22T07:19:59;4.50;;;3.17;;
6378;SDS011;3222;48.858;10.128;2023-06-22T07:22:24;5.68;;;3.40;;
6378;SDS011;3222;48.858;10.128;2023-06-22T07:24:50;5.57;;;3.47;;
6378;SDS011;3222;48.858;10.128;2023-06-22T07:27:16;5.15;;;3.40;;
6378;SDS011;3222;48.858;10.128;2023-06-22T07:29:44;6.13;;;3.20;;
6378;SDS011;3222;48.858;10.128;2023-06-22T07:32:11;4.40;;;2.90;;
6378;SDS011;3222;48.858;10.128;2023-06-22T07:34:36;21.35;;;3.88;;
6378;SDS011;3222;48.858;10.128;2023-06-22T07:37:02;7.10;;;3.35;;
6378;SDS011;3222;48.858;10.128;2023-06-22T07:39:29;9.40;;;3.40;;
6378;SDS011;3222;48.858;10.128;2023-06-22T07:41:55;8.85;;;3.13;;
6378;SDS011;3222;48.858;10.128;2023-06-22T07:44:21;3.67;;;3.03;;
6378;SDS011;3222;48.858;10.128;2023-06-22T07:46:47;5.90;;;3.30;;
6378;SDS011;3222;48.858;10.128;2023-06-22T07:49:13;8.15;;;3.10;;
6378;SDS011;3222;48.858;10.128;2023-06-22T07:51:38;6.80;;;3.15;;
6378;SDS011;3222;48.858;10.128;2023-06-22T07:54:04;5.88;;;3.22;;
6378;SDS011;3222;48.858;10.128;2023-06-22T07:56:30;10.57;;;3.10;;
6378;SDS011;3222;48.858;10.128;2023-06-22T07:58:56;4.22;;;2.78;;
6378;SDS011;3222;48.858;10.128;2023-06-22T08:01:23;7.43;;;3.75;;
6378;SDS011;3222;48.858;10.128;2023-06-22T08:03:49;7.28;;;3.05;;
6378;SDS011;3222;48.858;10.128;2023-06-22T08:06:15;9.48;;;3.95;;
6378;SDS011;3222;48.858;10.128;2023-06-22T08:08:41;8.05;;;3.60;;
6378;SDS011;3222;48.858;10.128;2023-06-22T08:11:07;7.97;;;3.30;;
6378;SDS011;3222;48.858;10.128;2023-06-22T08:13:34;13.25;;;3.30;;
6378;SDS011;3222;48.858;10.128;2023-06-22T08:15:59;5.15;;;3.25;;
6378;SDS011;3222;48.858;10.128;2023-06-22T08:18:25;11.02;;;3.53;;
6378;SDS011;3222;48.858;10.128;2023-06-22T08:20:51;9.02;;;3.35;;
6378;SDS011;3222;48.858;10.128;2023-06-22T08:23:17;7.00;;;3.63;;
6378;SDS011;3222;48.858;10.128;2023-06-22T08:25:43;5.65;;;3.40;;
6378;SDS011;3222;48.858;10.128;2023-06-22T08:28:09;7.13;;;3.00;;
6378;SDS011;3222;48.858;10.128;2023-06-22T08:30:34;8.02;;;3.88;;
6378;SDS011;3222;48.858;10.128;2023-06-22T08:33:00;11.45;;;3.45;;
6378;SDS011;3222;48.858;10.128;2023-06-22T08:35:26;7.57;;;3.60;;
6378;SDS011;3222;48.858;10.128;2023-06-22T08:37:52;8.93;;;3.85;;
6378;SDS011;3222;48.858;10.128;2023-06-22T08:40:19;10.18;;;3.90;;
6378;SDS011;3222;48.858;10.128;2023-06-22T08:42:46;7.43;;;3.92;;
6378;SDS011;3222;48.858;10.128;2023-06-22T08:45:12;15.25;;;4.40;;
6378;SDS011;3222;48.858;10.128;2023-06-22T08:47:39;7.20;;;4.30;;
6378;SDS011;3222;48.858;10.128;2023-06-22T08:50:06;10.80;;;4.07;;
6378;SDS011;3222;48.858;10.128;2023-06-22T08:52:33;8.35;;;4.30;;
6378;SDS011;3222;48.858;10.128;2023-06-22T08:55:00;8.48;;;4.40;;
6378;SDS011;3222;48.858;10.128;2023-06-22T08:57:26;11.93;;;4.68;;
6378;SDS011;3222;48.858;10.128;2023-06-22T08:59:52;14.18;;;5.10;;
6378;SDS011;3222;48.858;10.128;2023-06-22T09:02:18;15.70;;;4.50;;
6378;SDS011;3222;48.858;10.128;2023-06-22T09:04:45;13.00;;;4.68;;
6378;SDS011;3222;48.858;10.128;2023-06-22T09:07:11;12.35;;;4.50;;
6378;SDS011;3222;48.858;10.128;2023-06-22T09:09:37;10.75;;;4.63;;
6378;SDS011;3222;48.858;10.128;2023-06-22T09:12:03;9.32;;;5.10;;
6378;SDS011;3222;48.858;10.128;2023-06-22T09:14:29;8.38;;;4.18;;
6378;SDS011;3222;48.858;10.128;2023-06-22T09:16:55;10.27;;;4.25;;
6378;SDS011;3222;48.858;10.128;2023-06-22T09:19:20;14.57;;;4.40;;
6378;SDS011;3222;48.858;10.128;2023-06-22T09:21:46;10.30;;;4.20;;
6378;SDS011;3222;48.858;10.128;2023-06-22T09:24:12;9.88;;;4.53;;
6378;SDS011;3222;48.858;10.128;2023-06-22T09:26:39;8.93;;;4.28;;
6378;SDS011;3222;48.858;10.128;2023-06-22T09:29:05;9.18;;;4.47;;
6378;SDS011;3222;48.858;10.128;2023-06-22T09:31:31;8.60;;;4.20;;
6378;SDS011;3222;48.858;10.128;2023-06-22T09:33:57;11.65;;;4.80;;
6378;SDS011;3222;48.858;10.128;2023-06-22T09:36:22;7.65;;;4.43;;
6378;SDS011;3222;48.858;10.128;2023-06-22T09:38:49;13.13;;;4.30;;
6378;SDS011;3222;48.858;10.128;2023-06-22T09:41:20;10.95;;;4.18;;
6378;SDS011;3222;48.858;10.128;2023-06-22T09:43:46;8.48;;;3.92;;
6378;SDS011;3222;48.858;10.128;2023-06-22T09:46:14;9.02;;;4.43;;
6378;SDS011;3222;48.858;10.128;2023-06-22T09:48:41;13.23;;;4.60;;
6378;SDS011;3222;48.858;10.128;2023-06-22T09:51:06;10.80;;;4.60;;
6378;SDS011;3222;48.858;10.128;2023-06-22T09:53:32;8.02;;;4.32;;
6378;SDS011;3222;48.858;10.128;2023-06-22T09:55:59;10.27;;;4.53;;
6378;SDS011;3222;48.858;10.128;2023-06-22T09:58:26;10.73;;;4.47;;
6378;SDS011;3222;48.858;10.128;2023-06-22T10:00:52;10.23;;;4.40;;
6378;SDS011;3222;48.858;10.128;2023-06-22T10:03:19;9.50;;;4.20;;
6378;SDS011;3222;48.858;10.128;2023-06-22T10:05:45;11.55;;;4.50;;
6378;SDS011;3222;48.858;10.128;2023-06-22T10:08:11;14.15;;;5.30;;
6378;SDS011;3222;48.858;10.128;2023-06-22T10:10:37;11.00;;;4.65;;
6378;SDS011;3222;48.858;10.128;2023-06-22T10:13:08;12.43;;;4.90;;
6378;SDS011;3222;48.858;10.128;2023-06-22T10:15:35;11.95;;;4.45;;
6378;SDS011;3222;48.858;10.128;2023-06-22T10:18:02;11.07;;;4.40;;
6378;SDS011;3222;48.858;10.128;2023-06-22T10:20:27;9.90;;;4.85;;
6378;SDS011;3222;48.858;10.128;2023-06-22T10:22:53;10.35;;;5.07;;
6378;SDS011;3222;48.858;10.128;2023-06-22T10:25:19;16.60;;;4.78;;
6378;SDS011;3222;48.858;10.128;2023-06-22T10:27:45;10.32;;;5.22;;
6378;SDS011;3222;48.858;10.128;2023-06-22T10:30:12;11.27;;;4.85;;
6378;SDS011;3222;48.858;10.128;2023-06-22T10:32:38;13.95;;;5.10;;
6378;SDS011;3222;48.858;10.128;2023-06-22T10:35:04;12.10;;;4.78;;
6378;SDS011;3222;48.858;10.128;2023-06-22T10:37:31;9.18;;;5.07;;
6378;SDS011;3222;48.858;10.128;2023-06-22T10:39:56;13.77;;;5.03;;
6378;SDS011;3222;48.858;10.128;2023-06-22T10:42:22;10.43;;;4.60;;
6378;SDS011;3222;48.858;10.128;2023-06-22T10:44:48;15.02;;;4.63;;
6378;SDS011;3222;48.858;10.128;2023-06-22T10:47:14;8.65;;;4.88;;
6378;SDS011;3222;48.858;10.128;2023-06-22T10:49:40;14.20;;;5.30;;
6378;SDS011;3222;48.858;10.128;2023-06-22T10:52:07;7.90;;;4.75;;
6378;SDS011;3222;48.858;10.128;2023-06-22T10:54:33;10.00;;;4.53;;
6378;SDS011;3222;48.858;10.128;2023-06-22T10:57:00;12.55;;;4.72;;
6378;SDS011;3222;48.858;10.128;2023-06-22T10:59:26;13.05;;;4.57;;
6378;SDS011;3222;48.858;10.128;2023-06-22T11:01:54;8.57;;;4.80;;
6378;SDS011;3222;48.858;10.128;2023-06-22T11:04:21;11.95;;;4.85;;
6378;SDS011;3222;48.858;10.128;2023-06-22T11:06:47;8.80;;;4.88;;
6378;SDS011;3222;48.858;10.128;2023-06-22T11:09:13;12.93;;;5.20;;
6378;SDS011;3222;48.858;10.128;2023-06-22T11:11:43;11.55;;;5.00;;
6378;SDS011;3222;48.858;10.128;2023-06-22T11:14:10;12.40;;;5.05;;
6378;SDS011;3222;48.858;10.128;2023-06-22T11:16:36;12.70;;;5.03;;
6378;SDS011;3222;48.858;10.128;2023-06-22T11:19:01;14.00;;;4.78;;
6378;SDS011;3222;48.858;10.128;2023-06-22T11:21:28;13.13;;;5.20;;
6378;SDS011;3222;48.858;10.128;2023-06-22T11:23:54;14.35;;;5.13;;
6378;SDS011;3222;48.858;10.128;2023-06-22T11:26:19;13.30;;;4.88;;
6378;SDS011;3222;48.858;10.128;2023-06-22T11:28:46;11.93;;;5.00;;
6378;SDS011;3222;48.858;10.128;2023-06-22T11:31:12;16.90;;;5.63;;
6378;SDS011;3222;48.858;10.128;2023-06-22T11:33:38;12.25;;;5.68;;
6378;SDS011;3222;48.858;10.128;2023-06-22T11:36:03;12.45;;;5.40;;
6378;SDS011;3222;48.858;10.128;2023-06-22T11:38:29;12.80;;;5.60;;
6378;SDS011;3222;48.858;10.128;2023-06-22T11:40:57;10.18;;;5.05;;
6378;SDS011;3222;48.858;10.128;2023-06-22T11:43:23;11.98;;;5.07;;
6378;SDS011;3222;48.858;10.128;2023-06-22T11:45:49;11.80;;;5.43;;
6378;SDS011;3222;48.858;10.128;2023-06-22T11:48:15;16.50;;;5.35;;
6378;SDS011;3222;48.858;10.128;2023-06-22T11:50:41;15.25;;;5.07;;
6378;SDS011;3222;48.858;10.128;2023-06-22T11:53:07;9.73;;;4.65;;
6378;SDS011;3222;48.858;10.128;2023-06-22T11:55:33;10.38;;;5.30;;
6378;SDS011;3222;48.858;10.128;2023-06-22T11:57:58;11.68;;;4.82;;
6378;SDS011;3222;48.858;10.128;2023-06-22T12:00:28;15.88;;;5.43;;
6378;SDS011;3222;48.858;10.128;2023-06-22T12:02:54;13.00;;;5.07;;
6378;SDS011;3222;48.858;10.128;2023-06-22T12:05:21;10.90;;;5.22;;
6378;SDS011;3222;48.858;10.128;2023-06-22T12:07:47;11.15;;;4.78;;
6378;SDS011;3222;48.858;10.128;2023-06-22T12:10:13;16.00;;;5.35;;
6378;SDS011;3222;48.858;10.128;2023-06-22T12:12:39;14.48;;;5.75;;
6378;SDS011;3222;48.858;10.128;2023-06-22T12:15:05;15.45;;;5.40;;
6378;SDS011;3222;48.858;10.128;2023-06-22T12:17:32;13.88;;;5.30;;
6378;SDS011;3222;48.858;10.128;2023-06-22T12:19:59;15.98;;;5.28;;
6378;SDS011;3222;48.858;10.128;2023-06-22T12:22:25;11.25;;;5.45;;
6378;SDS011;3222;48.858;10.128;2023-06-22T12:24:51;11.50;;;5.32;;
6378;SDS011;3222;48.858;10.128;2023-06-22T12:27:16;13.95;;;5.80;;
6378;SDS011;3222;48.858;10.128;2023-06-22T12:29:44;10.82;;;5.25;;
6378;SDS011;3222;48.858;10.128;2023-06-22T12:32:11;15.48;;;5.40;;
6378;SDS011;3222;48.858;10.128;2023-06-22T12:34:39;13.88;;;5.55;;
6378;SDS011;3222;48.858;10.128;2023-06-22T12:37:05;18.08;;;5.65;;
6378;SDS011;3222;48.858;10.128;2023-06-22T12:39:31;14.95;;;5.00;;
6378;SDS011;3222;48.858;10.128;2023-06-22T12:41:57;11.75;;;5.07;;
6378;SDS011;3222;48.858;10.128;2023-06-22T12:44:23;13.55;;;5.88;;
6378;SDS011;3222;48.858;10.128;2023-06-22T12:46:49;11.80;;;5.53;;
6378;SDS011;3222;48.858;10.128;2023-06-22T12:49:15;11.20;;;5.80;;
6378;SDS011;3222;48.858;10.128;2023-06-22T12:51:41;17.67;;;5.07;;
6378;SDS011;3222;48.858;10.128;2023-06-22T12:54:07;12.30;;;5.95;;
6378;SDS011;3222;48.858;10.128;2023-06-22T12:56:33;15.45;;;6.05;;
6378;SDS011;3222;48.858;10.128;2023-06-22T12:58:59;14.32;;;5.80;;
6378;SDS011;3222;48.858;10.128;2023-06-22T13:01:27;11.48;;;5.53;;
6378;SDS011;3222;48.858;10.128;2023-06-22T13:03:53;12.98;;;5.18;;
6378;SDS011;3222;48.858;10.128;2023-06-22T13:06:19;12.82;;;5.50;;
6378;SDS011;3222;48.858;10.128;2023-06-22T13:08:45;11.18;;;5.68;;
6378;SDS011;3222;48.858;10.128;2023-06-22T13:11:10;15.10;;;5.60;;
6378;SDS011;3222;48.858;10.128;2023-06-22T13:13:36;15.82;;;5.25;;
6378;SDS011;3222;48.858;10.128;2023-06-22T13:16:02;13.05;;;5.85;;
6378;SDS011;3222;48.858;10.128;2023-06-22T13:18:27;11.88;;;5.30;;
6378;SDS011;3222;48.858;10.128;2023-06-22T13:20:53;10.25;;;5.40;;
6378;SDS011;3222;48.858;10.128;2023-06-22T13:23:20;11.73;;;5.60;;
6378;SDS011;3222;48.858;10.128;2023-06-22T13:25:46;10.45;;;5.38;;
6378;SDS011;3222;48.858;10.128;2023-06-22T13:28:13;16.25;;;5.72;;
6378;SDS011;3222;48.858;10.128;2023-06-22T13:30:40;12.40;;;5.18;;
6378;SDS011;3222;48.858;10.128;2023-06-22T13:33:07;10.73;;;5.40;;
6378;SDS011;3222;48.858;10.128;2023-06-22T13:35:33;11.10;;;5.32;;
6378;SDS011;3222;48.858;10.128;2023-06-22T13:38:00;16.35;;;5.18;;
6378;SDS011;3222;48.858;10.128;2023-06-22T13:40:26;13.68;;;5.82;;
6378;SDS011;3222;48.858;10.128;2023-06-22T13:42:52;13.15;;;5.82;;
6378;SDS011;3222;48.858;10.128;2023-06-22T13:45:18;11.07;;;5.28;;
6378;SDS011;3222;48.858;10.128;2023-06-22T13:47:45;9.70;;;5.22;;
6378;SDS011;3222;48.858;10.128;2023-06-22T13:50:11;8.45;;;5.07;;
6378;SDS011;3222;48.858;10.128;2023-06-22T13:52:38;11.20;;;5.00;;
6378;SDS011;3222;48.858;10.128;2023-06-22T13:55:04;11.60;;;5.88;;
6378;SDS011;3222;48.858;10.128;2023-06-22T13:57:32;17.13;;;5.47;;
6378;SDS011;3222;48.858;10.128;2023-06-22T13:59:59;10.90;;;5.45;;
6378;SDS011;3222;48.858;10.128;2023-06-22T14:02:28;12.82;;;5.60;;
6378;SDS011;3222;48.858;10.128;2023-06-22T14:04:53;9.43;;;5.35;;
6378;SDS011;3222;48.858;10.128;2023-06-22T14:07:19;16.70;;;5.20;;
6378;SDS011;3222;48.858;10.128;2023-06-22T14:09:46;15.57;;;6.10;;
6378;SDS011;3222;48.858;10.128;2023-06-22T14:12:11;14.90;;;6.15;;
6378;SDS011;3222;48.858;10.128;2023-06-22T14:14:38;10.43;;;5.05;;
6378;SDS011;3222;48.858;10.128;2023-06-22T14:17:04;13.43;;;5.43;;
6378;SDS011;3222;48.858;10.128;2023-06-22T14:19:30;17.35;;;5.80;;
6378;SDS011;3222;48.858;10.128;2023-06-22T14:21:56;17.40;;;5.40;;
6378;SDS011;3222;48.858;10.128;2023-06-22T14:24:24;12.10;;;5.32;;
6378;SDS011;3222;48.858;10.128;2023-06-22T14:26:50;15.52;;;5.28;;
6378;SDS011;3222;48.858;10.128;2023-06-22T14:29:15;9.20;;;5.07;;
6378;SDS011;3222;48.858;10.128;2023-06-22T14:31:44;12.23;;;5.32;;
6378;SDS011;3222;48.858;10.128;2023-06-22T14:34:10;10.80;;;5.30;;
6378;SDS011;3222;48.858;10.128;2023-06-22T14:36:36;13.90;;;5.20;;
6378;SDS011;3222;48.858;10.128;2023-06-22T14:39:01;10.10;;;5.28;;
6378;SDS011;3222;48.858;10.128;2023-06-22T14:41:27;8.07;;;4.97;;
6378;SDS011;3222;48.858;10.128;2023-06-22T14:43:54;12.60;;;5.38;;
6378;SDS011;3222;48.858;10.128;2023-06-22T14:46:19;11.02;;;5.85;;
6378;SDS011;3222;48.858;10.128;2023-06-22T14:48:45;10.35;;;5.63;;
6378;SDS011;3222;48.858;10.128;2023-06-22T14:51:11;16.55;;;5.53;;
6378;SDS011;3222;48.858;10.128;2023-06-22T14:53:38;15.25;;;6.43;;
6378;SDS011;3222;48.858;10.128;2023-06-22T14:56:04;12.35;;;5.70;;
6378;SDS011;3222;48.858;10.128;2023-06-22T14:58:30;11.00;;;5.43;;
6378;SDS011;3222;48.858;10.128;2023-06-22T15:01:04;11.32;;;5.45;;